Terminal Aerodrome Forecast
Issued by NWS Tuscon, AZ

Home | Current Version | Previous Version | Text Only | Print | Product List | Glossary On
Versions: 1 2 3 4 5 6 7 8 9 10 11 12 13 14
000
FTUS45 KTWC 262324
TAFTUS
TAF
KTUS 262324Z 2700/2724 34008KT P6SM FEW140 BKN250
     FM270400 22007KT P6SM FEW140 BKN250
     FM270900 15006KT P6SM SCT130 BKN250
     FM271400 12012G17KT P6SM SCT130 BKN250=

USA.gov is the U.S. government's official web portal to all federal, state and local government web resources and services.